메인 페이지
METAR-TAF:

METAR-TAF

공항 :

다마스쿠스 국제공항

다마스쿠스, 시리아

위도: 33-25N, 경도: 036-31E, 고도: 608m

현재 날씨관측

예보는 47분 전, 10:00시(UTC)에 발표되었습니다.
남서5kt
온도 11°C
습도 62%
기압 1015 hPa
고도 3000ft 상공 구름 조금
고도 10000ft 상공 구름 보통

METAR: OSDI 181000Z 22005KT 5000BR FEW030 SCT100 11/04 Q1015

시각: 12:47 (10:47 UTC)

예보

예보 대상 시간: 18일 06시부터 19일 12시까지 (UTC)
10kt
시정: 8000m
고도 3000ft 상공 구름 조금
고도 10000ft 상공 구름 보통
일시적
18일 06시부터 18일 18시까지 (UTC)
남서15kt, 순간 최대 풍속 25kt
고도 2500ft 상공 구름 조금, 적란운.
고도 3000ft 상공 구름 보통
고도 9000ft 상공 구름 많음

TAF: OSDI 1806/1912 26010KT 8000 FEW030 SCT100 TEMPO 1806/1818 22015G25KT 3000SHRA FEW025CB SCT030 BKN090

4,000개 이상의 공항 관측 자료 및 예보 (METAR 및 TAF 보고).

지도상에서 검색 가능한 기상관측소가 노란 점과 빨간 점으로 표시되어 있습니다.

기상관측소 명을 보려면 표시 위로 마우스를 이동하세요.

날씨 관측과 예보를 보려면 클릭하세요.

지도 변경 : 확대하려면 엑스 표시가 있는 녹색 버튼, 축소하려면 빼기 표시가 있는 녹색 버튼, 다음 페이지의 지도를 보려면 녹색 화살표를 클릭하세요.


METAR-TAF: